createdAt,value
2019-03-12T00:03:35.436Z,1.60
2019-03-12T00:06:09.784Z,1.55
2019-03-12T00:08:44.357Z,1.54
2019-03-12T00:14:11.095Z,1.56
2019-03-12T00:16:45.498Z,1.54
2019-03-12T00:19:15.967Z,1.41
2019-03-12T00:21:48.564Z,1.42
2019-03-12T00:24:18.894Z,1.37
2019-03-12T00:26:53.568Z,1.38
2019-03-12T00:29:24.006Z,1.39
2019-03-12T00:31:54.311Z,1.40
2019-03-12T00:34:27.221Z,1.46
2019-03-12T00:36:59.390Z,1.51
2019-03-12T00:39:33.462Z,1.56
2019-03-12T00:42:06.898Z,1.46
2019-03-12T00:44:39.504Z,1.43
2019-03-12T00:47:09.842Z,1.44
2019-03-12T00:52:29.991Z,1.44
2019-03-12T00:55:01.688Z,1.42
2019-03-12T00:57:31.989Z,1.42
2019-03-12T01:00:15.416Z,1.39
2019-03-12T01:02:47.103Z,1.35
2019-03-12T01:05:20.717Z,1.34
2019-03-12T01:07:52.619Z,1.32
2019-03-12T01:10:31.530Z,1.32
2019-03-12T01:13:09.985Z,1.29
2019-03-12T01:15:41.788Z,1.33
2019-03-12T01:18:18.575Z,1.30
2019-03-12T01:21:03.102Z,1.28
2019-03-12T01:23:34.275Z,1.24
2019-03-12T01:26:10.153Z,1.31
2019-03-12T01:28:42.455Z,1.29
2019-03-12T01:34:03.195Z,1.29
2019-03-12T01:36:38.019Z,1.18
2019-03-12T01:39:08.346Z,1.19
2019-03-12T01:41:40.325Z,1.15
2019-03-12T01:44:17.893Z,1.21
2019-03-12T01:46:52.360Z,1.22
2019-03-12T01:49:28.465Z,1.24
2019-03-12T01:52:01.460Z,1.24
2019-03-12T01:54:31.814Z,1.19
2019-03-12T01:57:03.111Z,1.16
2019-03-12T01:59:35.616Z,1.15
2019-03-12T02:02:10.047Z,1.14
2019-03-12T02:04:40.236Z,1.15
2019-03-12T02:07:14.531Z,1.15
2019-03-12T02:09:50.079Z,1.21
2019-03-12T02:12:24.669Z,1.22
2019-03-12T02:15:00.514Z,1.22
2019-03-12T02:17:34.433Z,1.17
2019-03-12T02:20:06.887Z,1.17
2019-03-12T02:22:48.620Z,1.13
2019-03-12T02:25:26.590Z,1.12
2019-03-12T02:30:47.781Z,1.09
2019-03-12T02:33:19.669Z,1.14
2019-03-12T02:35:51.534Z,1.07
2019-03-12T02:38:21.837Z,1.16
2019-03-12T02:40:53.876Z,1.16
2019-03-12T02:43:25.723Z,1.17
2019-03-12T02:48:46.804Z,1.20
2019-03-12T02:51:18.767Z,1.19
2019-03-12T02:53:52.905Z,1.16
2019-03-12T02:56:27.571Z,1.20
2019-03-12T02:59:01.329Z,1.20
2019-03-12T03:01:32.568Z,1.19
2019-03-12T03:04:02.901Z,1.23
2019-03-12T03:06:50.947Z,1.16
2019-03-12T03:09:25.079Z,1.15
2019-03-12T03:11:55.373Z,1.15
2019-03-12T03:14:29.746Z,1.12
2019-03-12T03:17:00.055Z,1.19
2019-03-12T03:19:33.566Z,1.19
2019-03-12T03:22:03.865Z,1.20
2019-03-12T03:24:35.470Z,1.22
2019-03-12T03:27:05.763Z,1.18
2019-03-12T03:32:25.359Z,1.14
2019-03-12T03:34:55.675Z,1.22
2019-03-12T03:37:26.033Z,1.19
2019-03-12T03:39:56.294Z,1.19
2019-03-12T03:42:26.579Z,1.27
2019-03-12T03:44:56.960Z,1.24
2019-03-12T03:47:27.266Z,1.21
2019-03-12T03:49:57.564Z,1.29
2019-03-12T03:52:27.889Z,1.29
2019-03-12T03:54:58.201Z,1.28
2019-03-12T03:57:28.485Z,1.28
2019-03-12T03:59:58.788Z,1.23
2019-03-12T04:02:30.040Z,1.26
2019-03-12T04:05:00.604Z,1.27
2019-03-12T04:07:31.261Z,1.24
2019-03-12T04:10:02.457Z,1.19
2019-03-12T04:15:22.025Z,1.28
2019-03-12T04:17:52.331Z,1.31
2019-03-12T04:20:22.726Z,1.28
2019-03-12T04:22:53.019Z,1.24
2019-03-12T04:25:23.452Z,1.24
2019-03-12T04:27:53.753Z,1.27
2019-03-12T04:30:26.425Z,1.26
2019-03-12T04:32:58.100Z,1.25
2019-03-12T04:35:32.183Z,1.27
2019-03-12T04:38:02.487Z,1.27
2019-03-12T04:40:32.938Z,1.31
2019-03-12T04:43:03.952Z,1.32
2019-03-12T04:45:34.287Z,1.33
2019-03-12T04:48:04.581Z,1.31
2019-03-12T04:50:36.480Z,1.16
2019-03-12T04:53:07.063Z,1.10
2019-03-12T04:55:37.503Z,1.15
2019-03-12T04:58:23.826Z,1.09
2019-03-12T05:00:57.492Z,1.05
2019-03-12T05:03:28.784Z,1.12
2019-03-12T05:06:01.250Z,1.12
2019-03-12T05:08:31.783Z,1.18
2019-03-12T05:11:06.784Z,1.28
2019-03-12T05:13:41.569Z,1.11
2019-03-12T05:16:17.626Z,1.12
2019-03-12T05:18:59.620Z,1.09
2019-03-12T05:24:35.677Z,1.00
2019-03-12T05:30:01.929Z,0.87
2019-03-12T05:32:38.862Z,0.83
2019-03-12T05:38:05.191Z,0.99
2019-03-12T05:40:36.739Z,1.03
2019-03-12T05:43:09.024Z,1.20
2019-03-12T05:48:31.571Z,1.21
2019-03-12T05:51:05.977Z,1.01
2019-03-12T05:59:38.572Z,0.96
2019-03-12T06:02:10.475Z,1.16
2019-03-12T06:04:44.066Z,1.11
2019-03-12T06:07:16.047Z,1.17
2019-03-12T06:09:48.120Z,1.34
2019-03-12T06:12:19.327Z,1.30
2019-03-12T06:14:52.531Z,1.49
2019-03-12T06:17:27.424Z,1.36
2019-03-12T06:22:47.272Z,1.37
2019-03-12T06:31:11.162Z,1.54
2019-03-12T06:36:44.577Z,1.63
2019-03-12T06:39:22.540Z,1.88
2019-03-12T06:45:06.196Z,1.89
2019-03-12T06:47:46.651Z,2.06
2019-03-12T06:53:41.130Z,2.19
2019-03-12T06:56:37.267Z,2.44
2019-03-12T07:02:17.755Z,2.53
2019-03-12T07:07:46.795Z,2.52
2019-03-12T07:10:50.843Z,2.84
2019-03-12T07:13:24.300Z,2.83
2019-03-12T07:16:06.641Z,2.98
2019-03-12T07:21:35.611Z,3.14
2019-03-12T07:24:13.175Z,3.10
2019-03-12T07:26:53.582Z,3.22
2019-03-12T07:32:37.573Z,3.73
2019-03-12T07:35:09.533Z,3.85
2019-03-12T07:38:01.104Z,3.87
2019-03-12T07:40:50.036Z,3.79
2019-03-12T07:43:27.875Z,4.26
2019-03-12T07:48:59.449Z,4.56
2019-03-12T07:54:55.359Z,3.96
2019-03-12T07:57:37.474Z,4.08
2019-03-12T08:00:20.555Z,4.50
2019-03-12T08:02:52.937Z,4.55
2019-03-12T08:05:30.377Z,5.18
2019-03-12T08:08:05.041Z,3.94
2019-03-12T08:13:53.696Z,4.85
2019-03-12T08:19:16.478Z,5.15
2019-03-12T08:21:50.047Z,4.84
2019-03-12T08:24:34.307Z,5.06
2019-03-12T08:27:08.987Z,5.34
2019-03-12T08:32:46.628Z,4.79
2019-03-12T08:35:19.628Z,4.95
2019-03-12T08:41:15.623Z,5.49
2019-03-12T08:50:22.825Z,5.33
2019-03-12T08:53:05.192Z,5.51
2019-03-12T08:58:45.348Z,5.54
2019-03-12T09:07:12.290Z,5.16
2019-03-12T09:10:15.599Z,5.63
2019-03-12T09:16:00.772Z,5.13
2019-03-12T09:18:50.552Z,5.18
2019-03-12T09:27:37.672Z,5.22
2019-03-12T09:30:16.728Z,5.79
2019-03-12T09:32:54.900Z,6.00
2019-03-12T09:38:26.117Z,5.60
2019-03-12T09:41:00.842Z,5.58
2019-03-12T09:46:52.113Z,5.28
2019-03-12T09:49:36.353Z,5.18
2019-03-12T09:52:14.374Z,5.20
2019-03-12T09:55:04.893Z,5.35
2019-03-12T10:07:01.377Z,5.65
2019-03-12T10:09:39.547Z,5.49
2019-03-12T10:12:30.136Z,5.60
2019-03-12T10:18:03.084Z,5.94
2019-03-12T10:20:55.647Z,5.90
2019-03-12T10:23:37.743Z,5.72
2019-03-12T10:29:06.556Z,5.99
2019-03-12T10:32:00.576Z,5.94
2019-03-12T10:34:35.366Z,6.01
2019-03-12T10:37:16.316Z,5.96
2019-03-12T10:39:57.844Z,5.95
2019-03-12T10:42:41.934Z,5.92
2019-03-12T10:45:13.996Z,5.50
2019-03-12T10:47:57.558Z,5.75
2019-03-12T10:50:31.025Z,5.57
2019-03-12T10:56:02.721Z,5.30
2019-03-12T10:58:39.025Z,5.32
2019-03-12T11:01:10.098Z,5.43
2019-03-12T11:03:40.427Z,5.48
2019-03-12T11:09:05.760Z,5.57
2019-03-12T11:11:36.451Z,5.61
2019-03-12T11:14:08.311Z,5.50
2019-03-12T11:16:38.648Z,5.39
2019-03-12T11:19:12.601Z,5.46
2019-03-12T11:24:33.505Z,5.34
2019-03-12T11:27:03.831Z,5.25
2019-03-12T11:32:33.429Z,5.36
2019-03-12T11:35:06.937Z,5.46
2019-03-12T11:37:55.466Z,5.68
2019-03-12T11:43:20.066Z,5.85
2019-03-12T11:45:50.493Z,5.76
2019-03-12T11:48:20.809Z,5.77
2019-03-12T11:53:40.499Z,5.80
2019-03-12T11:56:10.879Z,5.63
2019-03-12T11:58:42.740Z,5.49
2019-03-12T12:01:13.104Z,5.71
2019-03-12T12:03:43.329Z,5.67
2019-03-12T12:06:13.675Z,5.77
2019-03-12T12:08:44.349Z,5.75
2019-03-12T12:11:16.349Z,5.88
2019-03-12T12:16:38.716Z,5.93
2019-03-12T12:19:17.220Z,6.14
2019-03-12T12:21:47.520Z,6.34
2019-03-12T12:27:11.065Z,6.40
2019-03-12T12:29:46.059Z,6.14
2019-03-12T12:32:16.399Z,6.29
2019-03-12T12:37:36.317Z,6.07
2019-03-12T12:40:10.784Z,5.80
2019-03-12T12:45:39.018Z,5.96
2019-03-12T12:48:12.333Z,5.82
2019-03-12T12:50:46.212Z,5.86
2019-03-12T12:53:16.470Z,5.97
2019-03-12T12:55:49.006Z,5.98
2019-03-12T12:58:19.344Z,6.02
2019-03-12T13:00:51.298Z,5.79
2019-03-12T13:03:23.298Z,5.77
2019-03-12T13:05:55.746Z,5.69
2019-03-12T13:08:28.505Z,6.08
2019-03-12T13:13:51.095Z,6.24
2019-03-12T13:16:25.346Z,5.91
2019-03-12T13:18:55.127Z,5.93
2019-03-12T13:21:25.469Z,5.63
2019-03-12T13:23:59.818Z,5.97
2019-03-12T13:26:44.614Z,5.79
2019-03-12T13:29:20.881Z,5.88
2019-03-12T13:31:54.045Z,6.02
2019-03-12T13:34:40.713Z,5.96
2019-03-12T13:37:19.760Z,5.98
2019-03-12T13:39:55.218Z,5.99
2019-03-12T13:42:35.468Z,5.90
2019-03-12T13:50:55.182Z,5.83
2019-03-12T13:53:34.193Z,5.67
2019-03-12T14:04:36.469Z,5.66
2019-03-12T14:07:10.703Z,5.53
2019-03-12T14:09:48.710Z,5.54
2019-03-12T14:12:37.469Z,5.54
2019-03-12T14:18:03.785Z,5.33
2019-03-12T14:21:02.335Z,5.31
2019-03-12T14:32:25.314Z,5.12
2019-03-12T14:34:59.451Z,5.14
2019-03-12T14:43:15.008Z,5.03
2019-03-12T14:45:50.566Z,5.02
2019-03-12T14:48:59.225Z,4.99
2019-03-12T14:57:19.141Z,4.91
2019-03-12T14:59:57.261Z,4.88
2019-03-12T15:02:29.009Z,4.91
2019-03-12T15:08:01.018Z,4.76
2019-03-12T15:10:49.673Z,4.81
2019-03-12T15:16:14.539Z,4.77
2019-03-12T15:18:52.058Z,4.77
2019-03-12T15:29:56.846Z,4.58
2019-03-12T15:35:24.936Z,4.59
2019-03-12T15:43:54.296Z,4.30
2019-03-12T15:52:39.077Z,4.16
2019-03-12T15:55:16.386Z,4.09
2019-03-12T16:00:42.644Z,4.12
2019-03-12T16:09:11.904Z,4.01
2019-03-12T16:11:48.089Z,3.90
2019-03-12T16:14:19.572Z,3.80
2019-03-12T16:16:50.008Z,3.84
2019-03-12T16:19:22.642Z,3.87
2019-03-12T16:21:53.882Z,3.66
2019-03-12T16:24:24.276Z,3.60
2019-03-12T16:26:58.434Z,3.75
2019-03-12T16:29:30.545Z,3.75
2019-03-12T16:32:06.462Z,3.77
2019-03-12T16:34:38.107Z,3.80
2019-03-12T16:37:17.096Z,3.74
2019-03-12T16:39:50.486Z,3.78
2019-03-12T16:42:34.563Z,3.79
2019-03-12T16:44:58.750Z,3.79
2019-03-12T16:47:29.210Z,3.70
2019-03-12T16:50:07.092Z,3.71
2019-03-12T16:52:39.050Z,3.74
2019-03-12T16:55:18.657Z,3.69
2019-03-12T16:57:53.944Z,3.72
2019-03-12T17:00:25.715Z,3.74
2019-03-12T17:02:56.711Z,3.77
2019-03-12T17:05:28.344Z,3.77
2019-03-12T17:08:03.533Z,3.68
2019-03-12T17:10:37.333Z,3.68
2019-03-12T17:13:09.340Z,3.61
2019-03-12T17:15:40.888Z,3.59
2019-03-12T17:18:14.512Z,3.51
2019-03-12T17:20:45.593Z,3.46
2019-03-12T17:23:19.474Z,3.39
2019-03-12T17:25:49.930Z,3.31
2019-03-12T17:28:23.168Z,3.32
2019-03-12T17:30:57.918Z,3.41
2019-03-12T17:33:30.032Z,3.33
2019-03-12T17:36:06.287Z,3.30
2019-03-12T17:38:46.533Z,3.25
2019-03-12T17:41:09.189Z,3.36
2019-03-12T17:43:42.336Z,3.30
2019-03-12T17:46:16.813Z,3.10
2019-03-12T17:48:47.277Z,2.96
2019-03-12T17:51:21.777Z,3.09
2019-03-12T17:53:53.254Z,3.16
2019-03-12T17:56:27.902Z,3.12
2019-03-12T17:59:08.594Z,2.98
2019-03-12T18:01:42.134Z,3.11
2019-03-12T18:04:12.569Z,3.13
2019-03-12T18:06:43.936Z,2.87
2019-03-12T18:09:16.059Z,2.73
2019-03-12T18:11:48.034Z,2.79
2019-03-12T18:14:19.280Z,2.73
2019-03-12T18:16:51.880Z,2.65
2019-03-12T18:19:26.522Z,2.78
2019-03-12T18:21:59.319Z,2.62
2019-03-12T18:24:35.678Z,2.74
2019-03-12T18:27:06.796Z,2.84
2019-03-12T18:29:42.418Z,2.74
2019-03-12T18:32:12.805Z,2.59
2019-03-12T18:34:45.763Z,2.40
2019-03-12T18:37:24.802Z,2.26
2019-03-12T18:40:01.442Z,2.20
2019-03-12T18:42:35.666Z,2.12
2019-03-12T18:45:09.209Z,1.99
2019-03-12T18:47:41.781Z,1.99
2019-03-12T18:50:15.891Z,1.91
2019-03-12T18:52:49.516Z,2.25
2019-03-12T18:55:37.698Z,2.29
2019-03-12T18:58:08.987Z,2.05
2019-03-12T19:00:43.362Z,1.79
2019-03-12T19:03:13.963Z,1.95
2019-03-12T19:05:53.286Z,2.11
2019-03-12T19:08:25.721Z,2.13
2019-03-12T19:11:01.413Z,2.03
2019-03-12T19:13:33.733Z,1.91
2019-03-12T19:16:10.284Z,1.81
2019-03-12T19:18:43.205Z,1.76
2019-03-12T19:21:14.056Z,1.73
2019-03-12T19:23:49.379Z,1.67
2019-03-12T19:26:22.071Z,1.60
2019-03-12T19:28:52.831Z,1.60
2019-03-12T19:31:28.221Z,1.49
2019-03-12T19:34:03.401Z,1.40
2019-03-12T19:36:38.280Z,1.49
2019-03-12T19:39:10.781Z,1.48
2019-03-12T19:41:42.994Z,1.46
2019-03-12T19:44:19.609Z,1.38
2019-03-12T19:46:51.416Z,1.39
2019-03-12T19:49:25.318Z,1.31
2019-03-12T19:51:57.824Z,1.33
2019-03-12T19:54:33.765Z,1.25
2019-03-12T19:57:04.735Z,1.38
2019-03-12T19:59:35.547Z,1.52
2019-03-12T20:02:15.923Z,1.63
2019-03-12T20:04:47.104Z,1.50
2019-03-12T20:07:14.292Z,1.48
2019-03-12T20:09:47.999Z,1.35
2019-03-12T20:12:37.016Z,1.37
2019-03-12T20:15:30.092Z,1.34
2019-03-12T20:18:29.133Z,1.30
2019-03-12T20:21:37.764Z,1.20
2019-03-12T20:24:44.442Z,1.19
2019-03-12T20:27:34.509Z,1.24
2019-03-12T20:30:35.238Z,1.22
2019-03-12T20:33:14.051Z,1.25
2019-03-12T20:36:11.939Z,1.21
2019-03-12T20:39:20.557Z,1.18
2019-03-12T20:42:10.850Z,1.26
2019-03-12T20:45:00.657Z,1.29
2019-03-12T20:47:51.631Z,1.40
2019-03-12T20:50:49.357Z,1.48
2019-03-12T20:53:57.353Z,1.53
2019-03-12T20:57:02.447Z,1.32
2019-03-12T21:00:10.395Z,1.65
2019-03-12T21:03:03.116Z,1.75
2019-03-12T21:06:00.414Z,1.92
2019-03-12T21:08:37.023Z,1.68
2019-03-12T21:11:27.038Z,1.67
2019-03-12T21:14:17.218Z,1.67
2019-03-12T21:17:07.343Z,1.71
2019-03-12T21:20:16.269Z,1.86
2019-03-12T21:22:58.781Z,1.76
2019-03-12T21:25:54.559Z,1.88
2019-03-12T21:28:39.906Z,1.79
2019-03-12T21:31:10.306Z,1.76
2019-03-12T21:33:40.706Z,1.82
2019-03-12T21:36:11.079Z,2.02
2019-03-12T21:38:41.483Z,1.98
2019-03-12T21:41:11.872Z,1.89
2019-03-12T21:43:42.281Z,1.94
2019-03-12T21:46:12.664Z,1.82
2019-03-12T21:48:43.029Z,1.84
2019-03-12T21:51:13.409Z,1.76
2019-03-12T21:53:43.820Z,1.73
2019-03-12T21:56:14.206Z,1.77
2019-03-12T21:58:44.580Z,1.42
2019-03-12T22:01:15.043Z,1.65
2019-03-12T22:03:45.404Z,1.68
2019-03-12T22:06:16.234Z,1.66
2019-03-12T22:08:46.599Z,1.61
2019-03-12T22:11:16.964Z,1.61
2019-03-12T22:13:47.372Z,1.47
2019-03-12T22:16:25.780Z,1.65
2019-03-12T22:18:56.136Z,1.74
2019-03-12T22:25:14.292Z,1.76
2019-03-12T22:27:50.424Z,1.74
2019-03-12T22:33:57.947Z,1.72
2019-03-12T22:36:28.337Z,1.69
2019-03-12T22:38:58.718Z,1.57
2019-03-12T22:41:29.149Z,1.45
2019-03-12T22:44:01.097Z,1.45
2019-03-12T22:46:31.531Z,1.37
2019-03-12T22:49:01.961Z,1.26
2019-03-12T22:51:32.408Z,1.17
2019-03-12T22:54:02.826Z,1.22
2019-03-12T22:56:33.193Z,1.25
2019-03-12T22:59:03.584Z,1.24
2019-03-12T23:01:33.994Z,1.16
2019-03-12T23:04:04.355Z,1.18
2019-03-12T23:06:34.816Z,1.11
2019-03-12T23:09:05.379Z,1.09
2019-03-12T23:11:35.759Z,1.05
2019-03-12T23:14:06.139Z,1.06
2019-03-12T23:16:36.528Z,0.94
2019-03-12T23:19:06.902Z,0.96
2019-03-12T23:21:37.282Z,0.88
2019-03-12T23:24:07.646Z,1.01
2019-03-12T23:26:38.028Z,0.99
2019-03-12T23:29:08.399Z,0.96
2019-03-12T23:31:38.790Z,0.90
2019-03-12T23:34:09.263Z,0.88
2019-03-12T23:36:39.638Z,0.90
2019-03-12T23:39:10.047Z,0.82
2019-03-12T23:41:40.405Z,0.85
2019-03-12T23:44:10.797Z,0.64
2019-03-12T23:46:41.176Z,0.74
2019-03-12T23:49:11.551Z,0.69
2019-03-12T23:51:41.921Z,0.66
2019-03-12T23:54:12.310Z,0.61
2019-03-12T23:56:42.688Z,0.50
2019-03-12T23:59:13.045Z,0.53
